sensor_id;sensor_type;location;lat;lon;timestamp;temperature;humidity
20284;DHT22;10301;50.832;4.080;2024-02-26T00:01:23;7.90;99.90
20284;DHT22;10301;50.832;4.080;2024-02-26T00:03:49;7.90;99.90
20284;DHT22;10301;50.832;4.080;2024-02-26T00:06:15;7.80;99.90
20284;DHT22;10301;50.832;4.080;2024-02-26T00:08:41;7.80;99.90
20284;DHT22;10301;50.832;4.080;2024-02-26T00:11:07;7.90;99.90
20284;DHT22;10301;50.832;4.080;2024-02-26T00:13:32;7.90;99.90
20284;DHT22;10301;50.832;4.080;2024-02-26T00:15:58;7.80;99.90
20284;DHT22;10301;50.832;4.080;2024-02-26T00:18:24;7.80;99.90
20284;DHT22;10301;50.832;4.080;2024-02-26T00:20:49;7.90;99.90
20284;DHT22;10301;50.832;4.080;2024-02-26T00:23:15;7.70;99.90
20284;DHT22;10301;50.832;4.080;2024-02-26T00:25:41;7.70;99.90
20284;DHT22;10301;50.832;4.080;2024-02-26T00:28:09;7.60;99.90
20284;DHT22;10301;50.832;4.080;2024-02-26T00:30:35;7.60;99.90
20284;DHT22;10301;50.832;4.080;2024-02-26T00:33:01;7.50;99.90
20284;DHT22;10301;50.832;4.080;2024-02-26T00:35:27;7.60;99.90
20284;DHT22;10301;50.832;4.080;2024-02-26T00:37:52;7.50;99.90
20284;DHT22;10301;50.832;4.080;2024-02-26T00:40:18;7.50;99.90
20284;DHT22;10301;50.832;4.080;2024-02-26T00:42:44;7.40;99.90
20284;DHT22;10301;50.832;4.080;2024-02-26T00:45:12;7.50;99.90
20284;DHT22;10301;50.832;4.080;2024-02-26T00:47:37;7.50;99.90
20284;DHT22;10301;50.832;4.080;2024-02-26T00:50:06;7.60;99.90
20284;DHT22;10301;50.832;4.080;2024-02-26T00:52:32;7.50;99.90
20284;DHT22;10301;50.832;4.080;2024-02-26T00:54:58;7.50;99.90
20284;DHT22;10301;50.832;4.080;2024-02-26T00:57:24;7.50;99.90
20284;DHT22;10301;50.832;4.080;2024-02-26T00:59:50;7.40;99.90
20284;DHT22;10301;50.832;4.080;2024-02-26T01:02:16;7.50;99.90
20284;DHT22;10301;50.832;4.080;2024-02-26T01:04:41;7.50;99.90
20284;DHT22;10301;50.832;4.080;2024-02-26T01:07:07;7.50;99.90
20284;DHT22;10301;50.832;4.080;2024-02-26T01:09:33;7.50;99.90
20284;DHT22;10301;50.832;4.080;2024-02-26T01:11:58;7.60;99.90
20284;DHT22;10301;50.832;4.080;2024-02-26T01:14:24;7.60;99.90
20284;DHT22;10301;50.832;4.080;2024-02-26T01:16:50;7.50;99.90
20284;DHT22;10301;50.832;4.080;2024-02-26T01:19:15;7.50;99.90
20284;DHT22;10301;50.832;4.080;2024-02-26T01:21:41;7.40;99.90
20284;DHT22;10301;50.832;4.080;2024-02-26T01:24:07;7.40;99.90
20284;DHT22;10301;50.832;4.080;2024-02-26T01:26:32;7.30;99.90
20284;DHT22;10301;50.832;4.080;2024-02-26T01:28:58;7.40;99.90
20284;DHT22;10301;50.832;4.080;2024-02-26T01:31:24;7.40;99.90
20284;DHT22;10301;50.832;4.080;2024-02-26T01:33:49;7.60;99.90
20284;DHT22;10301;50.832;4.080;2024-02-26T01:36:15;7.60;99.90
20284;DHT22;10301;50.832;4.080;2024-02-26T01:38:40;7.50;99.90
20284;DHT22;10301;50.832;4.080;2024-02-26T01:41:06;7.40;99.90
20284;DHT22;10301;50.832;4.080;2024-02-26T01:43:32;7.40;99.90
20284;DHT22;10301;50.832;4.080;2024-02-26T01:45:58;7.30;99.90
20284;DHT22;10301;50.832;4.080;2024-02-26T01:48:24;7.30;99.90
20284;DHT22;10301;50.832;4.080;2024-02-26T01:50:51;7.20;99.90
20284;DHT22;10301;50.832;4.080;2024-02-26T01:53:17;7.20;99.90
20284;DHT22;10301;50.832;4.080;2024-02-26T01:55:44;7.20;99.90
20284;DHT22;10301;50.832;4.080;2024-02-26T01:58:10;7.20;99.90
20284;DHT22;10301;50.832;4.080;2024-02-26T02:00:38;7.10;99.90
20284;DHT22;10301;50.832;4.080;2024-02-26T02:03:04;7.00;99.90
20284;DHT22;10301;50.832;4.080;2024-02-26T02:05:31;7.10;99.90
20284;DHT22;10301;50.832;4.080;2024-02-26T02:07:57;7.20;99.90
20284;DHT22;10301;50.832;4.080;2024-02-26T02:10:25;7.10;99.90
20284;DHT22;10301;50.832;4.080;2024-02-26T02:12:52;7.10;99.90
20284;DHT22;10301;50.832;4.080;2024-02-26T02:15:18;7.20;99.90
20284;DHT22;10301;50.832;4.080;2024-02-26T02:17:43;7.10;99.90
20284;DHT22;10301;50.832;4.080;2024-02-26T02:20:15;7.10;99.90
20284;DHT22;10301;50.832;4.080;2024-02-26T02:22:42;7.10;99.90
20284;DHT22;10301;50.832;4.080;2024-02-26T02:25:08;7.10;99.90
20284;DHT22;10301;50.832;4.080;2024-02-26T02:27:34;7.10;99.90
20284;DHT22;10301;50.832;4.080;2024-02-26T02:29:59;7.10;99.90
20284;DHT22;10301;50.832;4.080;2024-02-26T02:32:25;7.10;99.90
20284;DHT22;10301;50.832;4.080;2024-02-26T02:34:51;7.10;99.90
20284;DHT22;10301;50.832;4.080;2024-02-26T02:37:17;7.20;99.90
20284;DHT22;10301;50.832;4.080;2024-02-26T02:39:43;7.00;99.90
20284;DHT22;10301;50.832;4.080;2024-02-26T02:42:10;7.00;99.90
20284;DHT22;10301;50.832;4.080;2024-02-26T02:44:36;7.00;99.90
20284;DHT22;10301;50.832;4.080;2024-02-26T02:47:01;6.90;99.90
20284;DHT22;10301;50.832;4.080;2024-02-26T02:49:27;6.90;99.90
20284;DHT22;10301;50.832;4.080;2024-02-26T02:51:53;6.90;99.90
20284;DHT22;10301;50.832;4.080;2024-02-26T02:54:23;6.90;99.90
20284;DHT22;10301;50.832;4.080;2024-02-26T02:56:48;6.80;99.90
20284;DHT22;10301;50.832;4.080;2024-02-26T02:59:14;6.80;99.90
20284;DHT22;10301;50.832;4.080;2024-02-26T03:01:40;6.90;99.90
20284;DHT22;10301;50.832;4.080;2024-02-26T03:04:05;7.00;99.90
20284;DHT22;10301;50.832;4.080;2024-02-26T03:06:31;6.90;99.90
20284;DHT22;10301;50.832;4.080;2024-02-26T03:08:57;7.10;99.90
20284;DHT22;10301;50.832;4.080;2024-02-26T03:11:22;6.90;99.90
20284;DHT22;10301;50.832;4.080;2024-02-26T03:13:48;7.00;99.90
20284;DHT22;10301;50.832;4.080;2024-02-26T03:16:14;7.00;99.90
20284;DHT22;10301;50.832;4.080;2024-02-26T03:18:39;6.90;99.90
20284;DHT22;10301;50.832;4.080;2024-02-26T03:21:06;6.90;99.90
20284;DHT22;10301;50.832;4.080;2024-02-26T03:23:32;6.90;99.90
20284;DHT22;10301;50.832;4.080;2024-02-26T03:26:04;6.90;99.90
20284;DHT22;10301;50.832;4.080;2024-02-26T03:28:30;6.90;99.90
20284;DHT22;10301;50.832;4.080;2024-02-26T03:30:59;6.90;99.90
20284;DHT22;10301;50.832;4.080;2024-02-26T03:33:25;7.00;99.90
20284;DHT22;10301;50.832;4.080;2024-02-26T03:35:50;6.90;99.90
20284;DHT22;10301;50.832;4.080;2024-02-26T03:38:16;6.90;99.90
20284;DHT22;10301;50.832;4.080;2024-02-26T03:40:42;6.80;99.90
20284;DHT22;10301;50.832;4.080;2024-02-26T03:43:08;6.80;99.90
20284;DHT22;10301;50.832;4.080;2024-02-26T03:45:33;6.70;99.90
20284;DHT22;10301;50.832;4.080;2024-02-26T03:47:59;6.80;99.90
20284;DHT22;10301;50.832;4.080;2024-02-26T03:50:25;6.80;99.90
20284;DHT22;10301;50.832;4.080;2024-02-26T03:52:50;6.90;99.90
20284;DHT22;10301;50.832;4.080;2024-02-26T03:55:16;6.80;99.90
20284;DHT22;10301;50.832;4.080;2024-02-26T03:57:46;6.80;99.90
20284;DHT22;10301;50.832;4.080;2024-02-26T04:00:12;6.70;99.90
20284;DHT22;10301;50.832;4.080;2024-02-26T04:02:38;6.80;99.90
20284;DHT22;10301;50.832;4.080;2024-02-26T04:05:04;6.70;99.90
20284;DHT22;10301;50.832;4.080;2024-02-26T04:07:30;6.60;99.90
20284;DHT22;10301;50.832;4.080;2024-02-26T04:09:56;6.60;99.90
20284;DHT22;10301;50.832;4.080;2024-02-26T04:12:21;6.70;99.90
20284;DHT22;10301;50.832;4.080;2024-02-26T04:14:47;6.70;99.90
20284;DHT22;10301;50.832;4.080;2024-02-26T04:17:13;6.60;99.90
20284;DHT22;10301;50.832;4.080;2024-02-26T04:19:38;6.60;99.90
20284;DHT22;10301;50.832;4.080;2024-02-26T04:22:04;6.70;99.90
20284;DHT22;10301;50.832;4.080;2024-02-26T04:24:30;6.60;99.90
20284;DHT22;10301;50.832;4.080;2024-02-26T04:26:56;6.70;99.90
20284;DHT22;10301;50.832;4.080;2024-02-26T04:29:21;6.70;99.90
20284;DHT22;10301;50.832;4.080;2024-02-26T04:31:47;6.70;99.90
20284;DHT22;10301;50.832;4.080;2024-02-26T04:34:13;6.60;99.90
20284;DHT22;10301;50.832;4.080;2024-02-26T04:36:39;6.50;99.90
20284;DHT22;10301;50.832;4.080;2024-02-26T04:39:04;6.60;99.90
20284;DHT22;10301;50.832;4.080;2024-02-26T04:41:30;6.50;99.90
20284;DHT22;10301;50.832;4.080;2024-02-26T04:43:56;6.50;99.90
20284;DHT22;10301;50.832;4.080;2024-02-26T04:46:21;6.50;99.90
20284;DHT22;10301;50.832;4.080;2024-02-26T04:48:47;6.50;99.90
20284;DHT22;10301;50.832;4.080;2024-02-26T04:51:13;6.60;99.90
20284;DHT22;10301;50.832;4.080;2024-02-26T04:53:39;6.50;99.90
20284;DHT22;10301;50.832;4.080;2024-02-26T04:56:04;6.50;99.90
20284;DHT22;10301;50.832;4.080;2024-02-26T04:58:30;6.50;99.90
20284;DHT22;10301;50.832;4.080;2024-02-26T05:00:56;6.60;99.90
20284;DHT22;10301;50.832;4.080;2024-02-26T05:03:21;6.50;99.90
20284;DHT22;10301;50.832;4.080;2024-02-26T05:05:47;6.50;99.90
20284;DHT22;10301;50.832;4.080;2024-02-26T05:08:13;6.40;99.90
20284;DHT22;10301;50.832;4.080;2024-02-26T05:10:38;6.50;99.90
20284;DHT22;10301;50.832;4.080;2024-02-26T05:13:08;6.50;99.90
20284;DHT22;10301;50.832;4.080;2024-02-26T05:15:35;6.50;99.90
20284;DHT22;10301;50.832;4.080;2024-02-26T05:18:00;6.50;99.90
20284;DHT22;10301;50.832;4.080;2024-02-26T05:20:26;6.40;99.90
20284;DHT22;10301;50.832;4.080;2024-02-26T05:22:51;6.50;99.90
20284;DHT22;10301;50.832;4.080;2024-02-26T05:25:17;6.40;99.90
20284;DHT22;10301;50.832;4.080;2024-02-26T05:27:44;6.50;99.90
20284;DHT22;10301;50.832;4.080;2024-02-26T05:30:10;6.60;99.90
20284;DHT22;10301;50.832;4.080;2024-02-26T05:32:36;6.60;99.90
20284;DHT22;10301;50.832;4.080;2024-02-26T05:35:03;6.60;99.90
20284;DHT22;10301;50.832;4.080;2024-02-26T05:37:29;6.60;99.90
20284;DHT22;10301;50.832;4.080;2024-02-26T05:39:55;6.60;99.90
20284;DHT22;10301;50.832;4.080;2024-02-26T05:42:21;6.70;99.90
20284;DHT22;10301;50.832;4.080;2024-02-26T05:44:47;6.50;99.90
20284;DHT22;10301;50.832;4.080;2024-02-26T05:47:12;6.40;99.90
20284;DHT22;10301;50.832;4.080;2024-02-26T05:49:39;6.50;99.90
20284;DHT22;10301;50.832;4.080;2024-02-26T05:52:05;6.50;99.90
20284;DHT22;10301;50.832;4.080;2024-02-26T05:54:31;6.50;99.90
20284;DHT22;10301;50.832;4.080;2024-02-26T05:56:57;6.60;99.90
20284;DHT22;10301;50.832;4.080;2024-02-26T05:59:23;6.50;99.90
20284;DHT22;10301;50.832;4.080;2024-02-26T06:01:49;6.60;99.90
20284;DHT22;10301;50.832;4.080;2024-02-26T06:04:14;6.60;99.90
20284;DHT22;10301;50.832;4.080;2024-02-26T06:06:40;6.60;99.90
20284;DHT22;10301;50.832;4.080;2024-02-26T06:09:06;6.50;99.90
20284;DHT22;10301;50.832;4.080;2024-02-26T06:11:31;6.50;99.90
20284;DHT22;10301;50.832;4.080;2024-02-26T06:13:57;6.50;99.90
20284;DHT22;10301;50.832;4.080;2024-02-26T06:16:23;6.40;99.90
20284;DHT22;10301;50.832;4.080;2024-02-26T06:18:49;6.40;99.90
20284;DHT22;10301;50.832;4.080;2024-02-26T06:21:15;6.40;99.90
20284;DHT22;10301;50.832;4.080;2024-02-26T06:23:40;6.50;99.90
20284;DHT22;10301;50.832;4.080;2024-02-26T06:26:06;6.40;99.90
20284;DHT22;10301;50.832;4.080;2024-02-26T06:28:32;6.50;99.90
20284;DHT22;10301;50.832;4.080;2024-02-26T06:30:59;6.50;99.90
20284;DHT22;10301;50.832;4.080;2024-02-26T06:33:25;6.40;99.90
20284;DHT22;10301;50.832;4.080;2024-02-26T06:35:50;6.30;99.90
20284;DHT22;10301;50.832;4.080;2024-02-26T06:38:16;6.30;99.90
20284;DHT22;10301;50.832;4.080;2024-02-26T06:40:43;6.40;99.90
20284;DHT22;10301;50.832;4.080;2024-02-26T06:43:09;6.40;99.90
20284;DHT22;10301;50.832;4.080;2024-02-26T06:45:35;6.40;99.90
20284;DHT22;10301;50.832;4.080;2024-02-26T06:48:00;6.40;99.90
20284;DHT22;10301;50.832;4.080;2024-02-26T06:50:26;6.50;99.90
20284;DHT22;10301;50.832;4.080;2024-02-26T06:52:52;6.50;99.90
20284;DHT22;10301;50.832;4.080;2024-02-26T06:55:17;6.40;99.90
20284;DHT22;10301;50.832;4.080;2024-02-26T06:57:43;6.50;99.90
20284;DHT22;10301;50.832;4.080;2024-02-26T07:00:09;6.50;99.90
20284;DHT22;10301;50.832;4.080;2024-02-26T07:02:40;6.70;99.90
20284;DHT22;10301;50.832;4.080;2024-02-26T07:05:06;6.60;99.90
20284;DHT22;10301;50.832;4.080;2024-02-26T07:07:31;6.40;99.90
20284;DHT22;10301;50.832;4.080;2024-02-26T07:09:57;6.40;99.90
20284;DHT22;10301;50.832;4.080;2024-02-26T07:12:23;6.40;99.90
20284;DHT22;10301;50.832;4.080;2024-02-26T07:14:49;6.30;99.90
20284;DHT22;10301;50.832;4.080;2024-02-26T07:17:15;6.30;99.90
20284;DHT22;10301;50.832;4.080;2024-02-26T07:19:42;6.30;99.90
20284;DHT22;10301;50.832;4.080;2024-02-26T07:22:08;6.30;99.90
20284;DHT22;10301;50.832;4.080;2024-02-26T07:24:33;6.30;99.90
20284;DHT22;10301;50.832;4.080;2024-02-26T07:26:59;6.20;99.90
20284;DHT22;10301;50.832;4.080;2024-02-26T07:29:25;6.20;99.90
20284;DHT22;10301;50.832;4.080;2024-02-26T07:31:51;6.30;99.90
20284;DHT22;10301;50.832;4.080;2024-02-26T07:34:16;6.40;99.90
20284;DHT22;10301;50.832;4.080;2024-02-26T07:36:42;6.40;99.90
20284;DHT22;10301;50.832;4.080;2024-02-26T07:39:08;6.30;99.90
20284;DHT22;10301;50.832;4.080;2024-02-26T07:41:34;6.20;99.90
20284;DHT22;10301;50.832;4.080;2024-02-26T07:43:59;6.30;99.90
20284;DHT22;10301;50.832;4.080;2024-02-26T07:46:25;6.20;99.90
20284;DHT22;10301;50.832;4.080;2024-02-26T07:48:51;6.20;99.90
20284;DHT22;10301;50.832;4.080;2024-02-26T07:51:16;6.20;99.90
20284;DHT22;10301;50.832;4.080;2024-02-26T07:53:43;6.20;99.90
20284;DHT22;10301;50.832;4.080;2024-02-26T07:56:09;6.30;99.90
20284;DHT22;10301;50.832;4.080;2024-02-26T07:58:35;6.20;99.90
20284;DHT22;10301;50.832;4.080;2024-02-26T08:01:00;6.20;99.90
20284;DHT22;10301;50.832;4.080;2024-02-26T08:03:26;6.30;99.90
20284;DHT22;10301;50.832;4.080;2024-02-26T08:05:52;6.40;99.90
20284;DHT22;10301;50.832;4.080;2024-02-26T08:08:18;6.40;99.90
20284;DHT22;10301;50.832;4.080;2024-02-26T08:10:43;6.30;99.90
20284;DHT22;10301;50.832;4.080;2024-02-26T08:13:09;6.30;99.90
20284;DHT22;10301;50.832;4.080;2024-02-26T08:15:35;6.30;99.90
20284;DHT22;10301;50.832;4.080;2024-02-26T08:18:02;6.30;99.90
20284;DHT22;10301;50.832;4.080;2024-02-26T08:20:29;6.30;99.90
20284;DHT22;10301;50.832;4.080;2024-02-26T08:22:55;6.30;99.90
20284;DHT22;10301;50.832;4.080;2024-02-26T08:25:21;6.40;99.90
20284;DHT22;10301;50.832;4.080;2024-02-26T08:27:47;6.20;99.90
20284;DHT22;10301;50.832;4.080;2024-02-26T08:30:14;6.30;99.90
20284;DHT22;10301;50.832;4.080;2024-02-26T08:32:42;6.40;99.90
20284;DHT22;10301;50.832;4.080;2024-02-26T08:35:08;6.30;99.90
20284;DHT22;10301;50.832;4.080;2024-02-26T08:37:34;6.30;99.90
20284;DHT22;10301;50.832;4.080;2024-02-26T08:39:59;6.30;99.90
20284;DHT22;10301;50.832;4.080;2024-02-26T08:42:25;6.30;99.90
20284;DHT22;10301;50.832;4.080;2024-02-26T08:44:51;6.20;99.90
20284;DHT22;10301;50.832;4.080;2024-02-26T08:47:16;6.20;99.90
20284;DHT22;10301;50.832;4.080;2024-02-26T08:49:44;6.20;99.90
20284;DHT22;10301;50.832;4.080;2024-02-26T08:52:09;6.20;99.90
20284;DHT22;10301;50.832;4.080;2024-02-26T08:54:35;6.30;99.90
20284;DHT22;10301;50.832;4.080;2024-02-26T08:57:01;6.40;99.90
20284;DHT22;10301;50.832;4.080;2024-02-26T08:59:26;6.50;99.90
20284;DHT22;10301;50.832;4.080;2024-02-26T09:01:52;6.40;99.90
20284;DHT22;10301;50.832;4.080;2024-02-26T09:04:17;6.50;99.90
20284;DHT22;10301;50.832;4.080;2024-02-26T09:06:43;6.50;99.90
20284;DHT22;10301;50.832;4.080;2024-02-26T09:09:09;6.60;99.90
20284;DHT22;10301;50.832;4.080;2024-02-26T09:11:34;6.50;99.90
20284;DHT22;10301;50.832;4.080;2024-02-26T09:14:00;6.30;99.90
20284;DHT22;10301;50.832;4.080;2024-02-26T09:16:26;6.30;99.90
20284;DHT22;10301;50.832;4.080;2024-02-26T09:18:51;6.40;99.90
20284;DHT22;10301;50.832;4.080;2024-02-26T09:21:17;6.30;99.90
20284;DHT22;10301;50.832;4.080;2024-02-26T09:23:50;6.20;99.90
20284;DHT22;10301;50.832;4.080;2024-02-26T09:26:16;6.20;99.90
20284;DHT22;10301;50.832;4.080;2024-02-26T09:28:42;6.10;99.90
20284;DHT22;10301;50.832;4.080;2024-02-26T09:31:08;6.00;99.90
20284;DHT22;10301;50.832;4.080;2024-02-26T09:33:34;6.10;99.90
20284;DHT22;10301;50.832;4.080;2024-02-26T09:36:00;6.10;99.90
20284;DHT22;10301;50.832;4.080;2024-02-26T09:38:26;6.10;99.90
20284;DHT22;10301;50.832;4.080;2024-02-26T09:40:53;6.10;99.90
20284;DHT22;10301;50.832;4.080;2024-02-26T09:43:21;6.10;99.90
20284;DHT22;10301;50.832;4.080;2024-02-26T09:45:49;6.10;99.90
20284;DHT22;10301;50.832;4.080;2024-02-26T09:48:16;6.10;99.90
20284;DHT22;10301;50.832;4.080;2024-02-26T09:50:43;6.10;99.90
20284;DHT22;10301;50.832;4.080;2024-02-26T09:53:11;6.00;99.90
20284;DHT22;10301;50.832;4.080;2024-02-26T09:55:37;6.10;99.90
20284;DHT22;10301;50.832;4.080;2024-02-26T09:58:05;6.00;99.90
20284;DHT22;10301;50.832;4.080;2024-02-26T10:00:31;6.10;99.90
20284;DHT22;10301;50.832;4.080;2024-02-26T10:03:04;6.00;99.90
20284;DHT22;10301;50.832;4.080;2024-02-26T10:05:31;6.10;99.90
20284;DHT22;10301;50.832;4.080;2024-02-26T10:07:57;6.00;99.90
20284;DHT22;10301;50.832;4.080;2024-02-26T10:10:24;6.10;99.90
20284;DHT22;10301;50.832;4.080;2024-02-26T10:12:49;6.00;99.90
20284;DHT22;10301;50.832;4.080;2024-02-26T10:15:15;6.00;99.90
20284;DHT22;10301;50.832;4.080;2024-02-26T10:17:41;6.10;99.90
20284;DHT22;10301;50.832;4.080;2024-02-26T10:20:14;6.10;99.90
20284;DHT22;10301;50.832;4.080;2024-02-26T10:22:41;6.20;99.90
20284;DHT22;10301;50.832;4.080;2024-02-26T10:25:08;6.20;99.90
20284;DHT22;10301;50.832;4.080;2024-02-26T10:27:34;6.10;99.90
20284;DHT22;10301;50.832;4.080;2024-02-26T10:30:21;6.10;99.90
20284;DHT22;10301;50.832;4.080;2024-02-26T10:32:49;6.10;99.90
20284;DHT22;10301;50.832;4.080;2024-02-26T10:35:15;6.00;99.90
20284;DHT22;10301;50.832;4.080;2024-02-26T10:37:41;6.10;99.90
20284;DHT22;10301;50.832;4.080;2024-02-26T10:40:14;6.10;99.90
20284;DHT22;10301;50.832;4.080;2024-02-26T10:42:41;6.10;99.90
20284;DHT22;10301;50.832;4.080;2024-02-26T10:45:07;6.10;99.90
20284;DHT22;10301;50.832;4.080;2024-02-26T10:47:35;6.10;99.90
20284;DHT22;10301;50.832;4.080;2024-02-26T10:50:05;6.10;99.90
20284;DHT22;10301;50.832;4.080;2024-02-26T10:52:32;6.20;99.90
20284;DHT22;10301;50.832;4.080;2024-02-26T10:55:05;6.10;99.90
20284;DHT22;10301;50.832;4.080;2024-02-26T10:57:38;6.10;99.90
20284;DHT22;10301;50.832;4.080;2024-02-26T11:00:06;6.10;99.90
20284;DHT22;10301;50.832;4.080;2024-02-26T11:02:36;6.10;99.90
20284;DHT22;10301;50.832;4.080;2024-02-26T11:05:06;6.00;99.90
20284;DHT22;10301;50.832;4.080;2024-02-26T11:07:32;6.10;99.90
20284;DHT22;10301;50.832;4.080;2024-02-26T11:10:00;6.00;99.90
20284;DHT22;10301;50.832;4.080;2024-02-26T11:12:27;6.10;99.90
20284;DHT22;10301;50.832;4.080;2024-02-26T11:14:55;6.10;99.90
20284;DHT22;10301;50.832;4.080;2024-02-26T11:17:22;6.00;99.90
20284;DHT22;10301;50.832;4.080;2024-02-26T11:19:50;6.00;99.90
20284;DHT22;10301;50.832;4.080;2024-02-26T11:22:17;6.00;99.90
20284;DHT22;10301;50.832;4.080;2024-02-26T11:24:43;6.00;99.90
20284;DHT22;10301;50.832;4.080;2024-02-26T11:27:10;6.10;99.90
20284;DHT22;10301;50.832;4.080;2024-02-26T11:29:48;6.10;99.90
20284;DHT22;10301;50.832;4.080;2024-02-26T11:32:15;6.00;99.90
20284;DHT22;10301;50.832;4.080;2024-02-26T11:34:41;6.10;99.90
20284;DHT22;10301;50.832;4.080;2024-02-26T11:37:11;6.20;99.90
20284;DHT22;10301;50.832;4.080;2024-02-26T11:39:40;6.10;99.90
20284;DHT22;10301;50.832;4.080;2024-02-26T11:42:09;6.00;99.90
20284;DHT22;10301;50.832;4.080;2024-02-26T11:44:36;6.00;99.90
20284;DHT22;10301;50.832;4.080;2024-02-26T11:47:12;6.00;99.90
20284;DHT22;10301;50.832;4.080;2024-02-26T11:49:38;6.10;99.90
20284;DHT22;10301;50.832;4.080;2024-02-26T11:52:08;6.00;99.90
20284;DHT22;10301;50.832;4.080;2024-02-26T11:54:53;5.90;99.90
20284;DHT22;10301;50.832;4.080;2024-02-26T11:57:23;6.00;99.90
20284;DHT22;10301;50.832;4.080;2024-02-26T11:59:49;6.00;99.90
20284;DHT22;10301;50.832;4.080;2024-02-26T12:02:38;6.00;99.90
20284;DHT22;10301;50.832;4.080;2024-02-26T12:05:19;6.10;99.90
20284;DHT22;10301;50.832;4.080;2024-02-26T12:07:48;6.00;99.90
20284;DHT22;10301;50.832;4.080;2024-02-26T12:10:41;6.10;99.90
20284;DHT22;10301;50.832;4.080;2024-02-26T12:13:15;6.00;99.90
20284;DHT22;10301;50.832;4.080;2024-02-26T12:18:18;6.00;99.90
20284;DHT22;10301;50.832;4.080;2024-02-26T12:20:44;6.00;99.90
20284;DHT22;10301;50.832;4.080;2024-02-26T12:23:15;5.90;99.90
20284;DHT22;10301;50.832;4.080;2024-02-26T12:25:43;5.90;99.90
20284;DHT22;10301;50.832;4.080;2024-02-26T12:28:09;6.10;99.90
20284;DHT22;10301;50.832;4.080;2024-02-26T12:30:35;6.00;99.90
20284;DHT22;10301;50.832;4.080;2024-02-26T12:33:01;6.10;99.90
20284;DHT22;10301;50.832;4.080;2024-02-26T12:35:28;6.10;99.90
20284;DHT22;10301;50.832;4.080;2024-02-26T12:37:54;6.00;99.90
20284;DHT22;10301;50.832;4.080;2024-02-26T12:40:20;5.90;99.90
20284;DHT22;10301;50.832;4.080;2024-02-26T12:42:46;6.00;99.90
20284;DHT22;10301;50.832;4.080;2024-02-26T12:45:13;6.00;99.90
20284;DHT22;10301;50.832;4.080;2024-02-26T12:47:43;5.80;99.90
20284;DHT22;10301;50.832;4.080;2024-02-26T12:50:10;5.90;99.90
20284;DHT22;10301;50.832;4.080;2024-02-26T12:52:44;5.90;99.90
20284;DHT22;10301;50.832;4.080;2024-02-26T12:55:14;5.90;99.90
20284;DHT22;10301;50.832;4.080;2024-02-26T12:57:41;5.90;99.90
20284;DHT22;10301;50.832;4.080;2024-02-26T13:00:12;5.80;99.90
20284;DHT22;10301;50.832;4.080;2024-02-26T13:02:38;5.90;99.90
20284;DHT22;10301;50.832;4.080;2024-02-26T13:05:06;5.90;99.90
20284;DHT22;10301;50.832;4.080;2024-02-26T13:07:33;5.90;99.90
20284;DHT22;10301;50.832;4.080;2024-02-26T13:10:00;5.80;99.90
20284;DHT22;10301;50.832;4.080;2024-02-26T13:12:26;5.80;99.90
20284;DHT22;10301;50.832;4.080;2024-02-26T13:15:02;5.70;99.90
20284;DHT22;10301;50.832;4.080;2024-02-26T13:17:31;5.80;99.90
20284;DHT22;10301;50.832;4.080;2024-02-26T13:19:57;5.80;99.90
20284;DHT22;10301;50.832;4.080;2024-02-26T13:22:23;5.80;99.90
20284;DHT22;10301;50.832;4.080;2024-02-26T13:24:56;5.80;99.90
20284;DHT22;10301;50.832;4.080;2024-02-26T13:27:23;5.70;99.90
20284;DHT22;10301;50.832;4.080;2024-02-26T13:30:01;5.70;99.90
20284;DHT22;10301;50.832;4.080;2024-02-26T13:32:27;5.70;99.90
20284;DHT22;10301;50.832;4.080;2024-02-26T13:35:04;5.80;99.90
20284;DHT22;10301;50.832;4.080;2024-02-26T13:37:31;5.80;99.90
20284;DHT22;10301;50.832;4.080;2024-02-26T13:39:57;5.80;99.90
20284;DHT22;10301;50.832;4.080;2024-02-26T13:42:22;5.80;99.90
20284;DHT22;10301;50.832;4.080;2024-02-26T13:44:48;5.80;99.90
20284;DHT22;10301;50.832;4.080;2024-02-26T13:47:14;5.70;99.90
20284;DHT22;10301;50.832;4.080;2024-02-26T13:49:41;5.70;99.90
20284;DHT22;10301;50.832;4.080;2024-02-26T13:52:07;5.70;99.90
20284;DHT22;10301;50.832;4.080;2024-02-26T13:54:32;5.80;99.90
20284;DHT22;10301;50.832;4.080;2024-02-26T13:56:59;5.80;99.90
20284;DHT22;10301;50.832;4.080;2024-02-26T13:59:24;5.80;99.90
20284;DHT22;10301;50.832;4.080;2024-02-26T14:01:50;5.80;99.90
20284;DHT22;10301;50.832;4.080;2024-02-26T14:04:18;5.80;99.90
20284;DHT22;10301;50.832;4.080;2024-02-26T14:06:44;5.80;99.90
20284;DHT22;10301;50.832;4.080;2024-02-26T14:09:09;5.70;99.90
20284;DHT22;10301;50.832;4.080;2024-02-26T14:11:35;5.70;99.90
20284;DHT22;10301;50.832;4.080;2024-02-26T14:14:01;5.70;99.90
20284;DHT22;10301;50.832;4.080;2024-02-26T14:16:27;5.70;99.90
20284;DHT22;10301;50.832;4.080;2024-02-26T14:18:53;5.80;99.90
20284;DHT22;10301;50.832;4.080;2024-02-26T14:21:18;5.80;99.90
20284;DHT22;10301;50.832;4.080;2024-02-26T14:23:44;5.70;99.90
20284;DHT22;10301;50.832;4.080;2024-02-26T14:26:10;5.80;99.90
20284;DHT22;10301;50.832;4.080;2024-02-26T14:28:36;5.80;99.90
20284;DHT22;10301;50.832;4.080;2024-02-26T14:31:02;5.80;99.90
20284;DHT22;10301;50.832;4.080;2024-02-26T14:33:29;5.70;99.90
20284;DHT22;10301;50.832;4.080;2024-02-26T14:35:56;5.80;99.90
20284;DHT22;10301;50.832;4.080;2024-02-26T14:38:21;5.80;99.90
20284;DHT22;10301;50.832;4.080;2024-02-26T14:40:49;5.80;99.90
20284;DHT22;10301;50.832;4.080;2024-02-26T14:43:14;5.90;99.90
20284;DHT22;10301;50.832;4.080;2024-02-26T14:45:40;5.90;99.90
20284;DHT22;10301;50.832;4.080;2024-02-26T14:48:06;5.90;99.90
20284;DHT22;10301;50.832;4.080;2024-02-26T14:50:33;5.90;99.90
20284;DHT22;10301;50.832;4.080;2024-02-26T14:52:58;5.80;99.90
20284;DHT22;10301;50.832;4.080;2024-02-26T14:55:25;5.90;99.90
20284;DHT22;10301;50.832;4.080;2024-02-26T14:57:51;5.90;99.90
20284;DHT22;10301;50.832;4.080;2024-02-26T15:00:17;5.90;99.90
20284;DHT22;10301;50.832;4.080;2024-02-26T15:02:42;5.90;99.90
20284;DHT22;10301;50.832;4.080;2024-02-26T15:05:08;5.90;99.90
20284;DHT22;10301;50.832;4.080;2024-02-26T15:07:36;5.90;99.90
20284;DHT22;10301;50.832;4.080;2024-02-26T15:10:08;5.90;99.90
20284;DHT22;10301;50.832;4.080;2024-02-26T15:12:34;5.90;99.90
20284;DHT22;10301;50.832;4.080;2024-02-26T15:15:00;5.90;99.90
20284;DHT22;10301;50.832;4.080;2024-02-26T15:17:27;6.00;99.90
20284;DHT22;10301;50.832;4.080;2024-02-26T15:19:53;6.10;99.90
20284;DHT22;10301;50.832;4.080;2024-02-26T15:22:19;6.00;99.90
20284;DHT22;10301;50.832;4.080;2024-02-26T15:24:45;6.00;99.90
20284;DHT22;10301;50.832;4.080;2024-02-26T15:27:15;5.90;99.90
20284;DHT22;10301;50.832;4.080;2024-02-26T15:29:42;5.90;99.90
20284;DHT22;10301;50.832;4.080;2024-02-26T15:32:08;5.90;99.90
20284;DHT22;10301;50.832;4.080;2024-02-26T15:34:33;5.90;99.90
20284;DHT22;10301;50.832;4.080;2024-02-26T15:36:59;5.90;99.90
20284;DHT22;10301;50.832;4.080;2024-02-26T15:39:25;5.90;99.90
20284;DHT22;10301;50.832;4.080;2024-02-26T15:41:50;5.90;99.90
20284;DHT22;10301;50.832;4.080;2024-02-26T15:44:17;5.80;99.90